Aviation Digital Data Service (ADDS)

Output produced by METARs form (2308 UTC 23 May 2022)
found at http://www.aviationweather.gov/metar/data/
 
LFLB 232300Z AUTO 00000KT 9999 FEW043/// OVC062/// ///TCU 18/16 Q1009
TAF LFLB 231400Z 2315/2415 VRB05KT 9999 BKN060 
     TEMPO 2315/2321 VRB20G35KT 4000 TSRA BKN040CB 
     PROB30 
     TEMPO 2315/2317 VRB25G45KT 1500 TSGR 
     TEMPO 2321/2404 4000 SHRA SCT020 BKN040TCU 
     BECMG 2404/2407 36008KT OVC025 
     BECMG 2409/2411 FEW040
       
LFBZ 232300Z AUTO 22005KT 170V270 9999 FEW015/// BKN022/// BKN052/// ///TCU 14/12 Q1015 BECMG BKN020
TAF LFBZ 231700Z 2318/2418 30012KT 9999 BKN020 
     TEMPO 2318/2322 27015G25KT 4000 -RA BKN012 
     TEMPO 2406/2416 27015G25KT 4000 SHRA FEW018CB BKN020TCU
       
LFRT 232300Z AUTO 24007KT CAVOK 10/08 Q1007
LFRM 232300Z AUTO 23005KT 190V270 9999 FEW008/// SCT032/// BKN039/// //////TCU 12/11 Q1008
LFLC 232300Z AUTO 25014G27KT 220V280 9999 SCT037 BKN054 BKN088 17/11 Q1009 TEMPO 4000 SHRA BKN030TCU
TAF LFLC 231700Z 2318/2418 25010KT 9999 BKN040 
     PROB30 
     TEMPO 2318/2403 27015G30KT 4000 SHRA BKN030TCU 
     PROB30 
     TEMPO 2409/2415 -SHRA BKN030 
     PROB40 
     TEMPO 2415/2418 36010KT SHRA SCT040TCU
       
LFOA 232300Z AUTO 27010KT 9999 -RA BKN015/// BKN024/// BKN033/// ///TCU 14/13 Q1008
TAF LFOA 231400Z 2315/2415 26015KT 9999 BKN025 SCT070 TX21/2315Z TN10/2404Z 
     TEMPO 2318/2402 4000 SHRA BKN010 BKN020TCU 
     BECMG 2402/2404 25008KT BKN010 
     BECMG 2406/2409 BKN020 
     TEMPO 2412/2415 4000 SHRA BKN040TCU
       
LFSB 232300Z AUTO 26004KT 230V310 CAVOK 17/13 Q1007 NOSIG
TAF LFSB 231700Z 2318/2418 26010KT 9999 FEW050 BKN110 
     TEMPO 2318/2409 -SHRA BKN050 
     PROB30 
     TEMPO 2318/2323 4000 SHRA FEW050TCU 
     TEMPO 2405/2411 27012G22KT
       
LFQB 232300Z AUTO 19006KT 160V220 9999 SCT043 BKN058 BKN068 14/13 Q1006
LFBX 232300Z AUTO 24005KT 210V280 9999 BKN012 BKN019 OVC110 14/13 Q1012
LFBL 232300Z AUTO 25007KT 210V290 9999 -RA BKN007 OVC011 12/11 Q1011 TEMPO BKN007 SCT060TCU
TAF AMD LFBL 232202Z 2322/2418 25010KT 9999 BKN025 
     TEMPO 2322/2407 -RA BKN007 SCT060TCU 
     BECMG 2407/2409 SCT020TCU SCT050
       
LFBI 232300Z AUTO 24009KT CAVOK 12/10 Q1010 NOSIG
TAF LFBI 231700Z 2318/2418 26015KT 9999 BKN025 
     TEMPO 2318/2322 27015G25KT -SHRA BKN030TCU 
     BECMG 2322/2324 24005KT 
     PROB30 
     TEMPO 2410/2418 4000 SHRA BKN060TCU
       
LFBO 232300Z AUTO 29011KT 9999 SCT015 BKN022 OVC033 15/12 Q1014 NOSIG
TAF AMD LFBO 232147Z 2321/2424 27010KT 9999 SCT020 BKN045 
     PROB30 
     TEMPO 2421/2423 28018G28KT 
     PROB30 
     TEMPO 2403/2406 BKN014 BKN035 
     BECMG 2409/2411 SCT030TCU 
     BECMG 2417/2419 CAVOK
       
LFMH 232300Z AUTO 22003KT 190V260 CAVOK 17/10 Q1009
LFAQ 232300Z AUTO 25007KT 9999 FEW030/// OVC054/// ///TCU 11/10 Q1004
TAF LFAQ 231400Z 2315/2324 26010KT 9999 SCT015 BKN030 
     TEMPO 2315/2319 3000 DZRA BR BKN007 BKN030 
     PROB30 
     TEMPO 2315/2317 OVC004 
     TEMPO 2322/2324 4000 SHRA BKN013TCU
       
LFOJ 232300Z AUTO 24009KT 9999 BKN036 OVC068 13/12 Q1006 TEMPO 25015G25KT 4500 -SHRA SCT010 SCT025CB
TAF LFOJ 232000Z 2321/2421 24010KT 9999 BKN030 TX18/2415Z TN09/2404Z 
     TEMPO 2321/2403 25015G25KT 4500 -SHRA SCT010 SCT025CB 
     PROB30 
     TEMPO 2404/2407 BKN010 
     TEMPO 2407/2421 SCT030TCU 
     PROB30 2418/2421 4500 -SHRA SCT045CB
       
LFBU 232300Z AUTO 23006KT 9999 FEW022/// SCT034/// BKN130/// ///TCU 14/12 Q1012
TAF LFBU 231700Z 2318/2418 24015KT 9999 BKN025 
     TEMPO 2318/2414 4000 -SHRA BKN025TCU 
     BECMG 2320/2322 26005KT
       
LFLY 232300Z AUTO 22003KT CAVOK 18/13 Q1009 TEMPO VRB15KT 4000 SHRA BKN060TCU
TAF LFLY 231700Z 2318/2418 36006KT CAVOK 
     PROB30 
     TEMPO 2318/2406 VRB15KT 4000 SHRA BKN060TCU
       
LFAC 232000Z AUTO 23011KT CAVOK 13/11 Q1001
LFKJ 232300Z AUTO VRB03KT 9999 OVC010 22/20 Q1008 NOSIG
TAF LFKJ 232000Z 2321/2421 24006KT CAVOK 
     PROB30 
     TEMPO 2322/2406 BKN012 
     BECMG 2408/2410 24010KT 
     BECMG 2415/2418 VRB03KT
       
LFMO 232300Z AUTO 31004KT CAVOK 20/11 Q1007 NOSIG
TAF LFMO 232000Z 2321/2421 VRB05KT CAVOK TX25/2415Z TN18/2404Z 
     BECMG 2403/2406 34010KT
       
LFRK 232300Z AUTO 24006KT 9999 FEW037/// ///TCU 10/09 Q1006
TAF LFRK 231400Z 2315/2324 30010KT 9999 BKN015 
     PROB40 
     TEMPO 2316/2321 27015G25KT 3000 SHRA BKN008 SCT020CB BKN025TCU
       
LFMV 232300Z AUTO 32003KT 260V340 CAVOK 20/10 Q1007
TAF LFMV 231400Z 2315/2415 VRB02KT CAVOK 
     TEMPO 2315/2318 24010KT 
     BECMG 2323/2401 30012KT 
     BECMG 2410/2412 VRB03KT
       
LFBC 232300Z AUTO 29008KT 260V320 9999 FEW021/// SCT110/// ///CB 14/11 Q1013
TAF LFBC 231400Z 2315/2415 24010KT 9999 BKN020 BKN030 
     TEMPO 2315/2321 25015G25KT 4000 SHRA BKN014TCU BKN020 
     TEMPO 2323/2415 4900 SHRA BKN030
       
LFLU 231800Z AUTO 28005KT 9999 BKN060 BKN092 26/14 Q1005
LFLH 231800Z AUTO 25010KT 220V280 CAVOK 20/13 Q1007
LFPG 232300Z 24009KT 9999 FEW008 SCT013 BKN046 14/12 Q1005 NOSIG
TAF AMD LFPG 231733Z 2318/2424 27010KT 9999 BKN030 TX17/2415Z TN10/2404Z 
     TEMPO 2320/2323 4000 SHRA BKN012 SCT015CB 
     PROB40 
     TEMPO 2412/2417 24010G25KT 4000 SHRA FEW035TCU 
     BECMG 2419/2421 VRB02KT CAVOK
       
LFLV 231800Z AUTO VRB03KT 9999 OVC056 19/11 Q1008
LFBG 232300Z AUTO 25006KT 9999 FEW033 BKN064 BKN100 14/11 Q1012
TAF LFBG 231400Z 2315/2415 26015G25KT 9999 BKN035 
     TEMPO 2315/2320 -SHRA SCT030TCU 
     BECMG 2400/2402 25005KT 
     TEMPO 2400/2415 4000 -SHRA SCT020TCU
       
LFPT 232300Z AUTO 28003KT 250V330 9999 FEW026 BKN060 BKN080 12/11 Q1005
LFMN 232300Z 32005KT 9999 FEW011 19/16 Q1006 NOSIG
TAF LFMN 232000Z 2321/2503 34005KT CAVOK 
     PROB30 
     TEMPO 2321/2323 09010KT 
     PROB40 
     TEMPO 2321/2408 BKN014 
     BECMG 2407/2409 17010KT 
     BECMG 2410/2412 09012KT 
     BECMG 2500/2502 34005KT
       
LFSM 231800Z AUTO 25013KT 210V280 9999 FEW031/// BKN110/// BKN140/// ///TCU 20/14 Q1006
LFLX 232300Z AUTO 25011KT 9999 // FEW036/// BKN044/// BKN054/// //////TCU 13/12 Q1009
TAF LFLX 231700Z 2318/2424 25012KT 9999 SCT040TCU 
     TEMPO 2320/2402 25015G25KT 3000 -SHRA BKN025 SCT035CB 
     TEMPO 2402/2404 BKN020 
     TEMPO 2409/2420 4000 -SHRA BKN040TCU 
     BECMG 2420/2422 25005KT CAVOK
       
LFOV 232300Z AUTO 29007KT 9999 FEW010/// SCT018/// BKN024/// ///CB 11/10 Q1008
LFST 232300Z AUTO 25009KT 9999 FEW023 SCT040 BKN052 18/13 Q1006 NOSIG
TAF LFST 231700Z 2318/2418 22012KT 9999 SCT050 
     PROB40 
     TEMPO 2318/2320 23016G28KT -SHRA FEW040CB 
     PROB40 
     TEMPO 2404/2408 4000 SHRA SCT040TCU 
     BECMG 2411/2413 28010KT
       
LFSN 232300Z AUTO 24007KT 200V290 9999 FEW018 15/13 Q1006
LFOE 232300Z AUTO 24007KT 9999 FEW047 OVC082 11/10 Q1006
TAF LFOE 231400Z 2315/2415 28010KT 9999 BKN005 BKN015 BKN035 
     BECMG 2315/2316 BKN016 
     TEMPO 2318/2321 3000 SHRA BKN012 BKN020CB 
     PROB30 
     TEMPO 2318/2321 2000 TSRAGS 
     TEMPO 2401/2409 BKN014 
     TEMPO 2410/2415 4000 -SHRA BKN050CB
       
LFBF 231900Z AUTO 27007KT 230V290 CAVOK 20/12 Q1011
LFTW 232300Z AUTO 29009KT CAVOK 20/11 Q1008
TAF LFTW 231400Z 2315/2415 VRB02KT CAVOK 
     TEMPO 2315/2318 19012KT 
     BECMG 2319/2321 30012KT 
     BECMG 2410/2412 VRB03KT
       
LFRB 232300Z AUTO 24005KT 9999 FEW027 08/07 Q1008 TEMPO 4000 SHRA BKN025TCU
TAF LFRB 231700Z 2318/2424 27008KT 9999 BKN025 
     TEMPO 2318/2416 4000 SHRA BKN025TCU 
     PROB40 
     TEMPO 2318/2323 28015G30KT 2000 SHRA BKN012 BKN025CB 
     BECMG 2322/2324 VRB04KT 
     PROB30 
     TEMPO 2402/2408 BKN009 
     PROB40 
     TEMPO 2408/2414 30015G25KT 2000 SHRA BKN012 BKN020CB 
     BECMG 2410/2412 29010KT
       
LFGA 232300Z AUTO 20008KT CAVOK 18/11 Q1006
LFBH 232300Z AUTO 27014KT 9999 SCT027 15/10 Q1011 TEMPO 25020G30KT 4000 SHRA BKN010 BKN030TCU
TAF LFBH 231700Z 2318/2418 26015KT 9999 BKN020 
     TEMPO 2318/2410 25020G30KT 4000 SHRA BKN010 BKN030TCU 
     BECMG 2323/2401 29010KT 
     TEMPO 2409/2414 29015G25KT
       
LFBA 232300Z AUTO 27008KT 9999 SCT018 SCT026 BKN070 15/13 Q1014
TAF LFBA 231400Z 2315/2324 30012KT 9999 BKN040 
     BECMG 2316/2318 CAVOK 
     PROB40 
     TEMPO 2321/2324 -SHRA SCT015TCU BKN030
       
LFRJ 232300Z AUTO 24009KT 9999 FEW025 SCT060 10/09 Q1008
TAF LFRJ 232000Z 2321/2406 27008KT 9999 BKN035 
     TEMPO 2321/2406 4000 SHRA BKN015TCU
       
LFRH 232300Z AUTO 28005KT 9999 FEW026/// ///TCU 10/09 Q1009 TEMPO SHRA SCT020CB BKN025
TAF LFRH 231700Z 2318/2418 27010KT CAVOK 
     PROB30 
     TEMPO 2318/2320 SHRA SCT010CB BKN020 
     TEMPO 2321/2403 SHRA SCT020CB BKN025 
     TEMPO 2403/2407 VRB03KT 4000 RA BKN025 
     TEMPO 2407/2416 3000 SHRA SCT020CB BKN025 
     BECMG 2416/2418 SCT020TCU
       
LFRO 232100Z AUTO 26013KT 9999 -RA FEW017/// SCT024/// OVC060/// //////TCU 12/09 Q1007
LFPB 232300Z AUTO 25008KT 220V280 9999 BKN014/// BKN036/// BKN043/// ///TCU 14/12 Q1005 BECMG BKN030
TAF AMD LFPB 231736Z 2318/2418 27010KT 9999 BKN030 
     TEMPO 2320/2323 4000 SHRA BKN013 SCT015CB 
     PROB40 
     TEMPO 2412/2417 24010G25KT 4000 SHRA FEW035TCU
       
LFMC 232300Z AUTO 00000KT 9999 ////// 16/10 Q1007
LFTH 232300Z AUTO 03002KT CAVOK 16/14 Q1007 NOSIG
TAF LFTH 232000Z 2321/2421 VRB02KT CAVOK 
     BECMG 2408/2410 24015G30KT 
     BECMG 2415/2417 27010KT
       
LFAT 232300Z AUTO 25010KT 220V290 9999 BKN014 BKN054 12/10 Q1003
TAF LFAT 231400Z 2315/2324 27010KT 9999 SCT015 BKN030 
     TEMPO 2315/2318 3000 DZRA BR BKN007 BKN030 
     PROB40 
     TEMPO 2315/2317 OVC003 
     TEMPO 2321/2324 25015G25KT 3000 SHRA BKN013CB
       
LFMI 232300Z AUTO 30006KT CAVOK 19/13 Q1007 NOSIG
TAF LFMI 232000Z 2321/2421 VRB04KT CAVOK TX26/2412Z TN19/2421Z 
     BECMG 2322/2324 31014KT 
     BECMG 2415/2417 25012KT 
     BECMG 2418/2420 VRB02KT
       
LFRI 232300Z AUTO 26006KT 230V290 CAVOK 12/10 Q1010
TAF LFRI 231700Z 2318/2418 26011KT 9999 BKN030 
     TEMPO 2318/2415 -SHRA SCT025CB
       
LFQQ 232300Z AUTO 23009KT 9999 -RA NSC 12/10 Q1003 TEMPO 3000 SHRA BKN013 BKN030CB
TAF LFQQ 231700Z 2318/2424 24010KT 9999 BKN030 
     TEMPO 2318/2319 3000 RA BKN013 BKN030 
     PROB40 
     TEMPO 2318/2319 OVC007 
     TEMPO 2323/2409 3000 SHRA BKN013 BKN030CB 
     TEMPO 2409/2414 24017G27KT 4000 SHRA BKN030CB 
     PROB30 2409/2414 2000 TSRA
       
LFSD 232300Z AUTO 20003KT CAVOK 14/11 Q1008
LFBT 232300Z AUTO 26004KT 9999 FEW024 BKN030 OVC047 13/10 Q1015 TEMPO 4000 -RA OVC012
TAF LFBT 231700Z 2318/2418 30012KT 9999 BKN060 
     BECMG 2319/2321 BKN020 
     TEMPO 2321/2401 4000 -RA OVC012 
     BECMG 2401/2403 24005KT 
     TEMPO 2409/2418 27015G25KT 4000 SHRA BKN015TCU
       
LFMD 232300Z AUTO VRB02KT CAVOK 17/16 Q1006
TAF LFMD 231400Z 2315/2415 12005KT CAVOK
       
LFJR 232300Z AUTO 25008KT 9999 FEW025/// SCT036/// BKN042/// ///TCU 13/10 Q1008
LFCR 232300Z AUTO 29019KT 9999 BKN010/// OVC017/// ///TCU 12/11 Q1012 TEMPO 3000 -SHRA SCT025 SCT040 BECMG 28008KT
TAF LFCR 231700Z 2318/2418 28008KT 9999 SCT025 SCT040 
     PROB30 
     TEMPO 2400/2406 3000 -SHRA BKN007 BKN025TCU 
     TEMPO 2411/2416 SCT040TCU
       
LFRC 232300Z AUTO 26010KT 9999 BKN013 BKN042 BKN056 11/09 Q1005
TAF LFRC 231400Z 2315/2324 30010KT 9999 FEW010 BKN025 
     PROB40 
     TEMPO 2315/2321 28015G25KT 
     PROB40 
     TEMPO 2316/2322 4000 SHRA BKN008 BKN020TCU
       
LFCK 232300Z AUTO 29021KT 9999 SCT026 SCT035 BKN068 17/12 Q1013
TAF LFCK 231700Z 2318/2403 29010KT 9999 BKN030 
     PROB30 
     TEMPO 2400/2403 BKN012 SCT025TCU
       
LFMT 232300Z AUTO 26009KT CAVOK 21/11 Q1009 NOSIG
TAF LFMT 232000Z 2321/2421 30012KT 9999 NSC 
     TEMPO 2413/2417 SHRA SCT060CB
       
LFBD 232300Z AUTO 24008KT 9999 ///TCU 13/12 Q1013 TEMPO 4000 SHRA
TAF LFBD 231700Z 2318/2424 26012KT 9999 BKN030 TX20/2414Z TN11/2404Z 
     TEMPO 2321/2406 VRB03KT 
     PROB40 
     TEMPO 2318/2404 4000 SHRA BKN015 BKN030TCU 
     BECMG 2407/2409 29010KT 
     BECMG 2420/2422 21005KT
       
LFJL 232300Z AUTO 21008KT 9999 BKN012 BKN017 BKN130 14/13 Q1005 TEMPO 26015G25KT 4000 SHRA BKN013 FEW030TCU
TAF LFJL 231700Z 2318/2418 25012KT 9999 SCT030 
     TEMPO 2318/2406 26015G25KT 4000 SHRA BKN013 FEW030TCU 
     PROB30 
     TEMPO 2318/2320 26018G35KT 2500 -TSRA BKN013 FEW020CB 
     BECMG 2410/2412 FEW040TCU 
     PROB40 
     TEMPO 2412/2416 26015G25KT -SHRA
       
LFRV 232300Z AUTO 26003KT 230V300 CAVOK 10/09 Q1009
LFLP 232300Z AUTO VRB03KT 9999 OVC058/// ///TCU 16/15 Q1009
TAF LFLP 231400Z 2315/2415 24005KT 9999 BKN060 
     TEMPO 2315/2321 VRB15G30KT 4000 TSRA BKN035CB 
     PROB30 
     TEMPO 2315/2317 VRB25G45KT 1500 TSGR 
     TEMPO 2321/2405 4000 SHRA SCT015 BKN025TCU 
     BECMG 2405/2407 31008KT OVC020 
     BECMG 2409/2411 SCT035
       
LFSG 232300Z AUTO 21008KT CAVOK 13/12 Q1006
LFBM 232300Z AUTO 23005KT 200V270 CAVOK 14/12 Q1014 TEMPO 3000 SHRA BKN020TCU BKN030
TAF LFBM 232000Z 2321/2421 24010KT 9999 BKN040 
     TEMPO 2321/2401 3000 SHRA BKN020TCU BKN030 
     PROB30 
     TEMPO 2401/2406 BKN007 
     BECMG 2408/2410 BKN025TCU 
     BECMG 2414/2416 CAVOK
       
LFRZ 232300Z AUTO 26006KT CAVOK 11/09 Q1009 TEMPO SCT025CB
TAF LFRZ 231700Z 2318/2418 27012KT 9999 SCT030 
     TEMPO 2318/2418 -SHRA SCT025CB
       
LFRS 232300Z AUTO 26005KT CAVOK 11/09 Q1009 TEMPO SCT025CB
TAF LFRS 231700Z 2318/2424 26010KT 9999 SCT030 
     TEMPO 2318/2418 -SHRA SCT025CB
       
LFSO 232300Z AUTO 23009KT CAVOK 13/12 Q1006
TAF LFSO 231400Z 2315/2415 22010G20KT 9999 SCT030 BKN045 
     TEMPO 2315/2318 23020G35KT 4000 SHRA SCT020CB BKN025 
     PROB40 
     TEMPO 2315/2318 2500 TSRA SCT020CB BKN025 
     PROB30 
     TEMPO 2315/2317 20020G40KT 1000 TSGR BKN015CB 
     TEMPO 2401/2406 4000 -SHRA BKN015 SCT020TCU
       
LFOH 232300Z AUTO 25015KT 9999 BKN014 BKN022 BKN037 12/10 Q1005
TAF AMD LFOH 231744Z 2317/2412 26010KT 9999 SCT015 BKN030 
     TEMPO 2317/2411 26017G27KT 3000 SHRA BKN009 BKN013CB
       
LFPO 232300Z AUTO 25006KT 200V280 9999 FEW012 BKN024 BKN086 14/13 Q1006 TEMPO 4500 -SHRA BKN020TCU
TAF LFPO 231700Z 2318/2424 24010KT 9999 BKN020 
     TEMPO 2319/2324 4500 -SHRA BKN020TCU 
     PROB40 
     TEMPO 2320/2322 24015G25KT 2500 SHRA SCT012 BKN020CB 
     PROB30 
     TEMPO 2403/2407 BKN012 
     BECMG 2407/2410 SCT025 
     PROB40 
     TEMPO 2410/2417 4000 -SHRA SCT035TCU 
     BECMG 2417/2420 VRB05KT CAVOK
       
LFBP 232300Z AUTO 25008KT 9999 FEW019 OVC038 14/11 Q1015 TEMPO 4000 -RA OVC012
TAF LFBP 231700Z 2318/2418 30012KT 9999 BKN060 
     BECMG 2318/2320 BKN020 
     TEMPO 2320/2324 4000 -RA OVC012 
     BECMG 2400/2402 24005KT 
     TEMPO 2408/2418 27015G25KT 4000 SHRA BKN015TCU
       
LFRD 232300Z AUTO 23007KT CAVOK 10/09 Q1007 TEMPO 4000 SHRA BKN020TCU
TAF LFRD 231700Z 2318/2418 30008KT 9999 BKN025 
     TEMPO 2318/2416 4000 SHRA BKN020TCU 
     PROB40 
     TEMPO 2318/2321 30015G25KT 2000 SHRA BKN008 BKN020CB 
     PROB30 
     TEMPO 2318/2320 TSRA 
     BECMG 2319/2321 24010KT 
     PROB30 
     TEMPO 2402/2408 BKN009 
     PROB40 
     TEMPO 2408/2414 25015G25KT 2000 SHRA BKN025CB 
     BECMG 2410/2412 31010KT
       
LFRU 232000Z AUTO 26008KT 9999 SCT018 SCT032 BKN060 12/09 Q1007
LFRQ 232300Z AUTO 27005KT 9999 FEW017/// ///TCU 10/08 Q1009
TAF LFRQ 231700Z 2318/2418 28012KT 9999 BKN030 
     TEMPO 2318/2417 4000 -SHRA SCT020CB 
     BECMG 2319/2321 28008KT 
     TEMPO 2412/2417 30010KT
       
LFKB 232300Z AUTO 34005KT 9999 OVC012 20/19 Q1006 TEMPO 4000 BR BKN005
TAF LFKB 232000Z 2321/2421 15010KT 9999 SCT012 BKN230 TX27/2412Z TN16/2404Z 
     BECMG 2321/2324 30004KT 
     PROB40 
     TEMPO 2321/2406 4000 BR BKN005 
     BECMG 2407/2409 04012KT SCT020
       
LFRL 232300Z AUTO 28008KT 9999 FEW027 SCT220 11/09 Q1009 TEMPO 4000 SHRA BKN012TCU
LFML 232300Z AUTO 31009KT CAVOK 21/14 Q1007 NOSIG
TAF LFML 232000Z 2321/2503 16004KT CAVOK TX25/2412Z TN17/2503Z 
     BECMG 2400/2402 31010KT 
     BECMG 2418/2420 VRB02KT 
     BECMG 2500/2502 30010KT
       
LFQA 232300Z AUTO 25003KT 9999 BKN046 BKN052 BKN150 14/13 Q1004
LFMP 232300Z AUTO 31008KT 280V340 9999 OVC076 21/11 Q1010
TAF LFMP 231400Z 2315/2415 30015G25KT 9999 BKN070 
     BECMG 2317/2319 32010KT 
     TEMPO 2405/2413 SHRA SCT030CB
       
LFSI 232300Z AUTO 22007KT 3900 1800 +RA BR FEW007/// BKN014/// BKN030/// ///CB 15/14 Q1006
TAF LFSI 231400Z 2315/2415 21015G25KT 9999 SCT025 SCT030 BKN060 
     TEMPO 2315/2317 4000 SHRA BKN025TCU BKN030 BKN060 
     BECMG 2318/2320 21005KT 
     TEMPO 2323/2403 6000 SHRA BKN025TCU BKN030 BKN060 
     BECMG 2402/2404 24015KT SCT010 BKN030 BKN060 
     BECMG 2410/2412 22005KT SCT035 SCT050
       
LFBE 232300Z AUTO 25007KT 9999 FEW026 OVC096 14/12 Q1013
LFKC 232300Z AUTO 15004KT 110V180 CAVOK 18/12 Q1006
TAF LFKC 231400Z 2315/2415 36010KT CAVOK TX28/2412Z TN16/2404Z 
     BECMG 2316/2318 VRB03KT 
     TEMPO 2316/2319 21015G25KT SCT040CB 
     BECMG 2319/2321 18005KT 
     BECMG 2409/2411 21012KT
       
LFLL 232300Z VRB03KT CAVOK 18/13 Q1008 NOSIG
TAF LFLL 231700Z 2318/2424 36006KT CAVOK 
     PROB30 
     TEMPO 2318/2406 VRB15KT 4000 SHRA BKN060TCU
       
LFLS 232300Z AUTO 00000KT 9999 OVC064 17/14 Q1009
TAF LFLS 231400Z 2315/2415 VRB05KT 9999 BKN060 
     TEMPO 2315/2320 VRB15G30KT 4000 TSRA BKN050CB 
     PROB30 
     TEMPO 2315/2316 VRB25G45KT 1500 +TSGR 
     PROB30 
     TEMPO 2320/2402 SHRA SCT040TCU
       
LFSX 232300Z AUTO 24007KT CAVOK 16/13 Q1007
TAF LFSX 232000Z 2321/2421 24005KT CAVOK 
     TEMPO 2408/2411 BKN040TCU
       
LFLN 232300Z AUTO 22003KT 180V260 9999 FEW037 SCT044 BKN052 16/11 Q1009
TAF LFLN 231700Z 2318/2403 25008KT 9999 SCT040 
     PROB40 
     TEMPO 2318/2320 29016G30KT 
     PROB40 
     TEMPO 2318/2403 -SHRA SCT030TCU
       
LFMY 232300Z AUTO 00000KT CAVOK 17/16 Q1007
TAF LFMY 232000Z 2321/2421 VRB02KT CAVOK 
     BECMG 2408/2409 31010G20KT 
     PROB30 
     TEMPO 2412/2415 -SHRA SCT070TCU
       
LFMK 232300Z AUTO 28013G24KT 9999 SCT032 BKN070 BKN086 18/12 Q1012
TAF LFMK 231400Z 2315/2415 28015KT 9999 SCT030 BKN060 
     TEMPO 2321/2406 28016G26KT
       
LFKS 232300Z AUTO 28004KT 240V330 9999 BKN011 19/16 Q1006
TAF LFKS 231400Z 2315/2415 11005KT CAVOK 
     PROB30 
     TEMPO 2323/2409 BKN010
       
LFOZ 232300Z AUTO 24008KT 9999 FEW013 BKN020 BKN028 14/12 Q1007
LFRG 232300Z AUTO 24010KT 9999 OVC012 11/10 Q1006
TAF LFRG 231400Z 2315/2324 28008KT 9999 SCT005 BKN020 
     TEMPO 2315/2318 BKN004 
     PROB40 
     TEMPO 2316/2322 28015G25KT 3000 SHRA BKN008 SCT020CB BKN025TCU
       
LFRN 232300Z AUTO 22006KT CAVOK 10/10 Q1008 NOSIG
TAF AMD LFRN 232109Z 2321/2418 27005KT 9999 BKN025 
     TEMPO 2321/2322 4000 SHRA BKN020CB 
     PROB30 
     TEMPO 2402/2408 BKN009 
     TEMPO 2409/2418 3000 SHRA BKN025CB
       
LFKF 232300Z AUTO 23009KT CAVOK 20/19 Q1008
TAF LFKF 231400Z 2315/2415 07010KT CAVOK 
     BECMG 2322/2324 26012KT 
     PROB40 
     TEMPO 2400/2406 BKN006
       
LFGJ 232300Z AUTO 19004KT CAVOK 16/14 Q1008
TAF LFGJ 231400Z 2315/2324 22010KT 9999 FEW040CB BKN090 
     TEMPO 2315/2319 24015G25KT 
     TEMPO 2315/2316 VRB15G30KT 2000 TSRA BKN035CB 
     TEMPO 2316/2318 SHRA 
     PROB30 
     TEMPO 2316/2317 4000 TSRA 
     BECMG 2318/2320 NSC
       
LFOB 232300Z AUTO 27006KT 250V310 9999 BKN028 OVC033 12/11 Q1005 TEMPO 3000 SHRA BKN015CB
TAF AMD LFOB 231703Z 2317/2412 25008KT 9999 BKN011 BKN030 
     BECMG 2317/2319 BKN030 
     TEMPO 2320/2412 3000 SHRA BKN015CB
       
LFPN 232300Z AUTO 27006KT 9999 FEW023 OVC084 12/11 Q1005
TAF LFPN 231700Z 2318/2403 28012KT 9999 BKN015 
     TEMPO 2318/2402 4000 -SHRA BKN008 SCT020TCU
       
LFOT 232300Z AUTO 25010KT CAVOK 13/10 Q1008 NOSIG
TAF LFOT 231700Z 2318/2418 26012KT 9999 BKN030TCU 
     TEMPO 2318/2322 3000 -SHRA BKN015CB 
     PROB40 
     TEMPO 2318/2320 26015G30KT 
     BECMG 2322/2324 BKN018 
     BECMG 2405/2407 CAVOK 
     PROB40 
     TEMPO 2409/2418 4000 -SHRA SCT040TCU
       
LFOP 232300Z AUTO 24011KT CAVOK 10/09 Q1005
TAF LFOP 231700Z 2318/2418 26010KT 9999 BKN030 
     TEMPO 2318/2416 3000 SHRA BKN013CB 
     PROB30 2409/2413 TSRA
       
LFOK 232300Z AUTO 22008KT 9999 FEW022 BKN052 OVC082 13/12 Q1005 TEMPO 3000 SHRA BKN013CB
TAF LFOK 231700Z 2318/2418 24013KT 9999 SCT015 BKN030 
     TEMPO 2322/2404 3000 SHRA BKN013CB 
     TEMPO 2404/2409 BKN011 
     PROB40 
     TEMPO 2412/2414 24015G25KT 3000 SHRA BKN013CB
       
LFPV 232300Z AUTO 25007KT 9999 FEW023 BKN084 OVC110 12/11 Q1006 NOSIG
TAF AMD LFPV 232201Z 2322/2421 20003KT 9999 SCT010 BKN030 TX16/2415Z TN08/2403Z 
     BECMG 2411/2413 CAVOK
       
LFMU 232300Z AUTO 28012KT CAVOK 21/13 Q1009
TAF LFMU 231400Z 2315/2415 35012KT 9999 SCT025 BKN040 
     TEMPO 2315/2317 30015G25KT 
     BECMG 2411/2413 18010KT 
     TEMPO 2411/2415 SHRA SCT060CB
       
LFPM 232300Z AUTO 24008KT CAVOK 14/13 Q1005